sensor_id;sensor_type;location;lat;lon;timestamp;P1;durP1;ratioP1;P2;durP2;ratioP2
7253;SDS011;4060;49.186;9.226;2023-11-19T00:01:03;3.00;;;2.80;;
7253;SDS011;4060;49.186;9.226;2023-11-19T00:03:38;2.53;;;2.33;;
7253;SDS011;4060;49.186;9.226;2023-11-19T00:06:07;2.60;;;2.40;;
7253;SDS011;4060;49.186;9.226;2023-11-19T00:08:37;3.25;;;2.88;;
7253;SDS011;4060;49.186;9.226;2023-11-19T00:11:05;2.90;;;2.70;;
7253;SDS011;4060;49.186;9.226;2023-11-19T00:13:35;2.85;;;2.47;;
7253;SDS011;4060;49.186;9.226;2023-11-19T00:16:05;2.80;;;2.60;;
7253;SDS011;4060;49.186;9.226;2023-11-19T00:18:37;2.42;;;2.22;;
7253;SDS011;4060;49.186;9.226;2023-11-19T00:21:07;3.00;;;2.70;;
7253;SDS011;4060;49.186;9.226;2023-11-19T00:23:37;3.35;;;3.10;;
7253;SDS011;4060;49.186;9.226;2023-11-19T00:26:07;3.03;;;2.72;;
7253;SDS011;4060;49.186;9.226;2023-11-19T00:28:36;2.47;;;2.38;;
7253;SDS011;4060;49.186;9.226;2023-11-19T00:31:06;2.97;;;2.75;;
7253;SDS011;4060;49.186;9.226;2023-11-19T00:33:42;3.70;;;2.80;;
7253;SDS011;4060;49.186;9.226;2023-11-19T00:36:12;2.85;;;2.65;;
7253;SDS011;4060;49.186;9.226;2023-11-19T00:38:42;3.00;;;2.80;;
7253;SDS011;4060;49.186;9.226;2023-11-19T00:41:11;2.97;;;2.60;;
7253;SDS011;4060;49.186;9.226;2023-11-19T00:43:42;3.65;;;2.85;;
7253;SDS011;4060;49.186;9.226;2023-11-19T00:46:12;3.72;;;2.60;;
7253;SDS011;4060;49.186;9.226;2023-11-19T00:48:43;3.05;;;2.75;;
7253;SDS011;4060;49.186;9.226;2023-11-19T00:51:13;2.78;;;2.50;;
7253;SDS011;4060;49.186;9.226;2023-11-19T00:53:43;3.70;;;3.40;;
7253;SDS011;4060;49.186;9.226;2023-11-19T00:56:12;3.45;;;3.17;;
7253;SDS011;4060;49.186;9.226;2023-11-19T00:58:43;3.25;;;2.95;;
7253;SDS011;4060;49.186;9.226;2023-11-19T01:01:14;3.05;;;2.85;;
7253;SDS011;4060;49.186;9.226;2023-11-19T01:03:45;3.50;;;3.20;;
7253;SDS011;4060;49.186;9.226;2023-11-19T01:06:15;3.70;;;3.40;;
7253;SDS011;4060;49.186;9.226;2023-11-19T01:08:55;3.50;;;3.20;;
7253;SDS011;4060;49.186;9.226;2023-11-19T01:11:24;3.95;;;3.58;;
7253;SDS011;4060;49.186;9.226;2023-11-19T01:13:54;3.88;;;3.58;;
7253;SDS011;4060;49.186;9.226;2023-11-19T01:16:23;4.25;;;3.80;;
7253;SDS011;4060;49.186;9.226;2023-11-19T01:18:55;4.40;;;3.92;;
7253;SDS011;4060;49.186;9.226;2023-11-19T01:21:26;3.80;;;3.50;;
7253;SDS011;4060;49.186;9.226;2023-11-19T01:23:56;3.95;;;3.65;;
7253;SDS011;4060;49.186;9.226;2023-11-19T01:26:26;3.97;;;3.67;;
7253;SDS011;4060;49.186;9.226;2023-11-19T01:28:56;4.03;;;3.63;;
7253;SDS011;4060;49.186;9.226;2023-11-19T01:31:26;3.95;;;3.60;;
7253;SDS011;4060;49.186;9.226;2023-11-19T01:33:57;3.75;;;3.45;;
7253;SDS011;4060;49.186;9.226;2023-11-19T01:36:27;4.55;;;4.15;;
7253;SDS011;4060;49.186;9.226;2023-11-19T01:38:56;4.40;;;4.00;;
7253;SDS011;4060;49.186;9.226;2023-11-19T01:41:25;4.30;;;3.90;;
7253;SDS011;4060;49.186;9.226;2023-11-19T01:43:55;3.72;;;3.42;;
7253;SDS011;4060;49.186;9.226;2023-11-19T01:46:25;3.80;;;3.50;;
7253;SDS011;4060;49.186;9.226;2023-11-19T01:48:54;4.03;;;3.70;;
7253;SDS011;4060;49.186;9.226;2023-11-19T01:51:25;4.57;;;4.18;;
7253;SDS011;4060;49.186;9.226;2023-11-19T01:53:55;3.90;;;3.60;;
7253;SDS011;4060;49.186;9.226;2023-11-19T01:56:25;4.22;;;3.83;;
7253;SDS011;4060;49.186;9.226;2023-11-19T01:58:56;3.97;;;3.67;;
7253;SDS011;4060;49.186;9.226;2023-11-19T02:01:26;3.90;;;3.60;;
7253;SDS011;4060;49.186;9.226;2023-11-19T02:04:00;3.70;;;3.40;;
7253;SDS011;4060;49.186;9.226;2023-11-19T02:06:30;3.80;;;3.50;;
7253;SDS011;4060;49.186;9.226;2023-11-19T02:09:02;4.50;;;4.10;;
7253;SDS011;4060;49.186;9.226;2023-11-19T02:11:34;4.25;;;3.90;;
7253;SDS011;4060;49.186;9.226;2023-11-19T02:14:04;4.10;;;3.80;;
7253;SDS011;4060;49.186;9.226;2023-11-19T02:16:33;4.47;;;4.07;;
7253;SDS011;4060;49.186;9.226;2023-11-19T02:19:05;4.82;;;4.38;;
7253;SDS011;4060;49.186;9.226;2023-11-19T02:21:36;5.18;;;4.72;;
7253;SDS011;4060;49.186;9.226;2023-11-19T02:24:06;4.35;;;3.95;;
7253;SDS011;4060;49.186;9.226;2023-11-19T02:26:39;4.20;;;3.80;;
7253;SDS011;4060;49.186;9.226;2023-11-19T02:29:16;4.43;;;4.03;;
7253;SDS011;4060;49.186;9.226;2023-11-19T02:31:45;5.10;;;4.50;;
7253;SDS011;4060;49.186;9.226;2023-11-19T02:34:15;4.47;;;4.07;;
7253;SDS011;4060;49.186;9.226;2023-11-19T02:36:44;5.05;;;4.60;;
7253;SDS011;4060;49.186;9.226;2023-11-19T02:39:14;4.38;;;4.05;;
7253;SDS011;4060;49.186;9.226;2023-11-19T02:41:47;4.60;;;4.20;;
7253;SDS011;4060;49.186;9.226;2023-11-19T02:44:21;4.70;;;4.30;;
7253;SDS011;4060;49.186;9.226;2023-11-19T02:46:50;4.90;;;4.43;;
7253;SDS011;4060;49.186;9.226;2023-11-19T02:49:20;4.95;;;4.55;;
7253;SDS011;4060;49.186;9.226;2023-11-19T02:51:50;4.82;;;4.43;;
7253;SDS011;4060;49.186;9.226;2023-11-19T02:54:19;4.93;;;4.47;;
7253;SDS011;4060;49.186;9.226;2023-11-19T02:56:53;4.50;;;4.20;;
7253;SDS011;4060;49.186;9.226;2023-11-19T02:59:27;5.07;;;4.57;;
7253;SDS011;4060;49.186;9.226;2023-11-19T03:02:05;5.43;;;4.93;;
7253;SDS011;4060;49.186;9.226;2023-11-19T03:04:37;4.90;;;4.50;;
7253;SDS011;4060;49.186;9.226;2023-11-19T03:07:08;4.50;;;4.10;;
7253;SDS011;4060;49.186;9.226;2023-11-19T03:09:38;4.70;;;4.30;;
7253;SDS011;4060;49.186;9.226;2023-11-19T03:12:10;4.22;;;3.92;;
7253;SDS011;4060;49.186;9.226;2023-11-19T03:14:41;4.20;;;3.90;;
7253;SDS011;4060;49.186;9.226;2023-11-19T03:17:11;4.43;;;4.03;;
7253;SDS011;4060;49.186;9.226;2023-11-19T03:19:40;4.30;;;3.90;;
7253;SDS011;4060;49.186;9.226;2023-11-19T03:22:09;4.05;;;3.72;;
7253;SDS011;4060;49.186;9.226;2023-11-19T03:24:40;4.75;;;4.13;;
7253;SDS011;4060;49.186;9.226;2023-11-19T03:27:10;4.20;;;3.85;;
7253;SDS011;4060;49.186;9.226;2023-11-19T03:29:41;4.18;;;3.78;;
7253;SDS011;4060;49.186;9.226;2023-11-19T03:32:10;3.75;;;3.45;;
7253;SDS011;4060;49.186;9.226;2023-11-19T03:34:41;3.42;;;3.13;;
7253;SDS011;4060;49.186;9.226;2023-11-19T03:37:11;4.35;;;3.95;;
7253;SDS011;4060;49.186;9.226;2023-11-19T03:39:42;3.50;;;3.20;;
7253;SDS011;4060;49.186;9.226;2023-11-19T03:42:12;3.70;;;3.35;;
7253;SDS011;4060;49.186;9.226;2023-11-19T03:44:43;2.92;;;2.72;;
7253;SDS011;4060;49.186;9.226;2023-11-19T03:47:13;3.30;;;3.10;;
7253;SDS011;4060;49.186;9.226;2023-11-19T03:49:47;3.30;;;3.00;;
7253;SDS011;4060;49.186;9.226;2023-11-19T03:52:17;3.20;;;2.90;;
7253;SDS011;4060;49.186;9.226;2023-11-19T03:54:49;3.42;;;3.13;;
7253;SDS011;4060;49.186;9.226;2023-11-19T03:57:19;3.10;;;2.80;;
7253;SDS011;4060;49.186;9.226;2023-11-19T03:59:50;3.40;;;3.10;;
7253;SDS011;4060;49.186;9.226;2023-11-19T04:02:21;2.97;;;2.72;;
7253;SDS011;4060;49.186;9.226;2023-11-19T04:04:54;3.05;;;2.83;;
7253;SDS011;4060;49.186;9.226;2023-11-19T04:07:23;2.90;;;2.70;;
7253;SDS011;4060;49.186;9.226;2023-11-19T04:09:53;2.38;;;2.17;;
7253;SDS011;4060;49.186;9.226;2023-11-19T04:12:22;2.92;;;2.63;;
7253;SDS011;4060;49.186;9.226;2023-11-19T04:14:54;3.35;;;3.05;;
7253;SDS011;4060;49.186;9.226;2023-11-19T04:17:23;3.10;;;2.90;;
7253;SDS011;4060;49.186;9.226;2023-11-19T04:19:52;2.90;;;2.70;;
7253;SDS011;4060;49.186;9.226;2023-11-19T04:22:22;3.10;;;2.90;;
7253;SDS011;4060;49.186;9.226;2023-11-19T04:24:52;2.72;;;2.53;;
7253;SDS011;4060;49.186;9.226;2023-11-19T04:27:21;2.63;;;2.42;;
7253;SDS011;4060;49.186;9.226;2023-11-19T04:29:51;2.95;;;2.75;;
7253;SDS011;4060;49.186;9.226;2023-11-19T04:32:22;2.80;;;2.60;;
7253;SDS011;4060;49.186;9.226;2023-11-19T04:34:52;3.05;;;2.80;;
7253;SDS011;4060;49.186;9.226;2023-11-19T04:37:22;3.50;;;3.03;;
7253;SDS011;4060;49.186;9.226;2023-11-19T04:39:51;2.78;;;2.58;;
7253;SDS011;4060;49.186;9.226;2023-11-19T04:42:22;3.50;;;3.20;;
7253;SDS011;4060;49.186;9.226;2023-11-19T04:44:51;3.45;;;3.15;;
7253;SDS011;4060;49.186;9.226;2023-11-19T04:47:23;4.28;;;3.92;;
7253;SDS011;4060;49.186;9.226;2023-11-19T04:49:53;4.20;;;3.90;;
7253;SDS011;4060;49.186;9.226;2023-11-19T04:52:22;4.28;;;3.88;;
7253;SDS011;4060;49.186;9.226;2023-11-19T04:54:51;4.57;;;4.18;;
7253;SDS011;4060;49.186;9.226;2023-11-19T04:57:21;4.72;;;4.32;;
7253;SDS011;4060;49.186;9.226;2023-11-19T04:59:51;4.78;;;4.38;;
7253;SDS011;4060;49.186;9.226;2023-11-19T05:02:22;4.78;;;4.25;;
7253;SDS011;4060;49.186;9.226;2023-11-19T05:04:51;4.63;;;4.22;;
7253;SDS011;4060;49.186;9.226;2023-11-19T05:07:21;4.38;;;3.97;;
7253;SDS011;4060;49.186;9.226;2023-11-19T05:09:51;4.28;;;3.88;;
7253;SDS011;4060;49.186;9.226;2023-11-19T05:12:20;4.38;;;4.00;;
7253;SDS011;4060;49.186;9.226;2023-11-19T05:14:50;3.83;;;3.40;;
7253;SDS011;4060;49.186;9.226;2023-11-19T05:17:23;4.13;;;3.83;;
7253;SDS011;4060;49.186;9.226;2023-11-19T05:19:54;4.00;;;3.60;;
7253;SDS011;4060;49.186;9.226;2023-11-19T05:22:23;3.72;;;3.42;;
7253;SDS011;4060;49.186;9.226;2023-11-19T05:24:53;3.47;;;3.17;;
7253;SDS011;4060;49.186;9.226;2023-11-19T05:27:25;3.55;;;3.25;;
7253;SDS011;4060;49.186;9.226;2023-11-19T05:29:55;3.22;;;2.90;;
7253;SDS011;4060;49.186;9.226;2023-11-19T05:32:26;3.35;;;3.05;;
7253;SDS011;4060;49.186;9.226;2023-11-19T05:34:55;3.33;;;3.08;;
7253;SDS011;4060;49.186;9.226;2023-11-19T05:37:24;3.03;;;2.78;;
7253;SDS011;4060;49.186;9.226;2023-11-19T05:39:54;2.70;;;2.50;;
7253;SDS011;4060;49.186;9.226;2023-11-19T05:42:25;2.80;;;2.60;;
7253;SDS011;4060;49.186;9.226;2023-11-19T05:44:55;2.80;;;2.60;;
7253;SDS011;4060;49.186;9.226;2023-11-19T05:47:24;2.78;;;2.58;;
7253;SDS011;4060;49.186;9.226;2023-11-19T05:49:55;2.40;;;2.20;;
7253;SDS011;4060;49.186;9.226;2023-11-19T05:52:25;2.05;;;1.90;;
7253;SDS011;4060;49.186;9.226;2023-11-19T05:54:54;2.00;;;1.80;;
7253;SDS011;4060;49.186;9.226;2023-11-19T05:57:24;1.70;;;1.60;;
7253;SDS011;4060;49.186;9.226;2023-11-19T05:59:55;1.88;;;1.77;;
7253;SDS011;4060;49.186;9.226;2023-11-19T06:02:27;1.90;;;1.80;;
7253;SDS011;4060;49.186;9.226;2023-11-19T06:04:56;1.50;;;1.40;;
7253;SDS011;4060;49.186;9.226;2023-11-19T06:07:26;1.83;;;1.50;;
7253;SDS011;4060;49.186;9.226;2023-11-19T06:09:56;1.38;;;1.27;;
7253;SDS011;4060;49.186;9.226;2023-11-19T06:12:25;1.40;;;1.20;;
7253;SDS011;4060;49.186;9.226;2023-11-19T06:14:55;1.45;;;1.35;;
7253;SDS011;4060;49.186;9.226;2023-11-19T06:17:26;1.13;;;1.02;;
7253;SDS011;4060;49.186;9.226;2023-11-19T06:19:56;1.30;;;1.20;;
7253;SDS011;4060;49.186;9.226;2023-11-19T06:22:26;0.95;;;0.95;;
7253;SDS011;4060;49.186;9.226;2023-11-19T06:24:55;1.10;;;1.08;;
7253;SDS011;4060;49.186;9.226;2023-11-19T06:27:26;1.10;;;1.10;;
7253;SDS011;4060;49.186;9.226;2023-11-19T06:29:55;1.42;;;1.15;;
7253;SDS011;4060;49.186;9.226;2023-11-19T06:32:26;0.80;;;0.80;;
7253;SDS011;4060;49.186;9.226;2023-11-19T06:34:56;0.90;;;0.90;;
7253;SDS011;4060;49.186;9.226;2023-11-19T06:37:25;1.30;;;0.98;;
7253;SDS011;4060;49.186;9.226;2023-11-19T06:39:55;0.77;;;0.77;;
7253;SDS011;4060;49.186;9.226;2023-11-19T06:42:25;1.65;;;1.20;;
7253;SDS011;4060;49.186;9.226;2023-11-19T06:44:56;1.10;;;1.00;;
7253;SDS011;4060;49.186;9.226;2023-11-19T06:47:27;1.73;;;0.77;;
7253;SDS011;4060;49.186;9.226;2023-11-19T06:49:57;0.95;;;0.80;;
7253;SDS011;4060;49.186;9.226;2023-11-19T06:52:26;0.70;;;0.70;;
7253;SDS011;4060;49.186;9.226;2023-11-19T06:54:57;1.30;;;0.73;;
7253;SDS011;4060;49.186;9.226;2023-11-19T06:57:26;0.80;;;0.80;;
7253;SDS011;4060;49.186;9.226;2023-11-19T06:59:58;0.70;;;0.70;;
7253;SDS011;4060;49.186;9.226;2023-11-19T07:02:30;0.80;;;0.77;;
7253;SDS011;4060;49.186;9.226;2023-11-19T07:04:59;0.70;;;0.70;;
7253;SDS011;4060;49.186;9.226;2023-11-19T07:07:30;0.70;;;0.70;;
7253;SDS011;4060;49.186;9.226;2023-11-19T07:10:01;0.88;;;0.68;;
7253;SDS011;4060;49.186;9.226;2023-11-19T07:12:33;0.70;;;0.70;;
7253;SDS011;4060;49.186;9.226;2023-11-19T07:15:02;0.60;;;0.60;;
7253;SDS011;4060;49.186;9.226;2023-11-19T07:17:33;0.70;;;0.70;;
7253;SDS011;4060;49.186;9.226;2023-11-19T07:20:04;0.70;;;0.70;;
7253;SDS011;4060;49.186;9.226;2023-11-19T07:22:33;1.08;;;0.70;;
7253;SDS011;4060;49.186;9.226;2023-11-19T07:25:04;0.60;;;0.50;;
7253;SDS011;4060;49.186;9.226;2023-11-19T07:27:34;1.05;;;0.80;;
7253;SDS011;4060;49.186;9.226;2023-11-19T07:30:04;0.68;;;0.57;;
7253;SDS011;4060;49.186;9.226;2023-11-19T07:32:37;0.55;;;0.55;;
7253;SDS011;4060;49.186;9.226;2023-11-19T07:35:17;0.73;;;0.60;;
7253;SDS011;4060;49.186;9.226;2023-11-19T07:37:46;0.60;;;0.60;;
7253;SDS011;4060;49.186;9.226;2023-11-19T07:40:16;0.80;;;0.80;;
7253;SDS011;4060;49.186;9.226;2023-11-19T07:42:46;0.70;;;0.70;;
7253;SDS011;4060;49.186;9.226;2023-11-19T07:45:15;1.73;;;0.80;;
7253;SDS011;4060;49.186;9.226;2023-11-19T07:47:46;0.65;;;0.65;;
7253;SDS011;4060;49.186;9.226;2023-11-19T07:50:17;0.63;;;0.60;;
7253;SDS011;4060;49.186;9.226;2023-11-19T07:52:46;0.70;;;0.70;;
7253;SDS011;4060;49.186;9.226;2023-11-19T07:55:16;0.70;;;0.70;;
7253;SDS011;4060;49.186;9.226;2023-11-19T07:57:45;0.90;;;0.60;;
7253;SDS011;4060;49.186;9.226;2023-11-19T08:00:15;1.17;;;0.90;;
7253;SDS011;4060;49.186;9.226;2023-11-19T08:02:47;0.70;;;0.70;;
7253;SDS011;4060;49.186;9.226;2023-11-19T08:05:16;0.95;;;0.90;;
7253;SDS011;4060;49.186;9.226;2023-11-19T08:07:46;1.63;;;0.90;;
7253;SDS011;4060;49.186;9.226;2023-11-19T08:10:15;1.05;;;0.80;;
7253;SDS011;4060;49.186;9.226;2023-11-19T08:12:45;1.40;;;1.05;;
7253;SDS011;4060;49.186;9.226;2023-11-19T08:15:14;0.95;;;0.85;;
7253;SDS011;4060;49.186;9.226;2023-11-19T08:17:44;0.80;;;0.80;;
7253;SDS011;4060;49.186;9.226;2023-11-19T08:20:16;1.30;;;0.80;;
7253;SDS011;4060;49.186;9.226;2023-11-19T08:22:45;0.70;;;0.70;;
7253;SDS011;4060;49.186;9.226;2023-11-19T08:25:15;0.60;;;0.60;;
7253;SDS011;4060;49.186;9.226;2023-11-19T08:27:44;0.90;;;0.90;;
7253;SDS011;4060;49.186;9.226;2023-11-19T08:30:14;1.00;;;0.93;;
7253;SDS011;4060;49.186;9.226;2023-11-19T08:32:44;1.10;;;1.00;;
7253;SDS011;4060;49.186;9.226;2023-11-19T08:35:17;0.88;;;0.88;;
7253;SDS011;4060;49.186;9.226;2023-11-19T08:37:47;1.35;;;1.02;;
7253;SDS011;4060;49.186;9.226;2023-11-19T08:40:16;1.42;;;0.90;;
7253;SDS011;4060;49.186;9.226;2023-11-19T08:42:46;0.90;;;0.80;;
7253;SDS011;4060;49.186;9.226;2023-11-19T08:45:15;0.88;;;0.88;;
7253;SDS011;4060;49.186;9.226;2023-11-19T08:47:45;0.95;;;0.90;;
7253;SDS011;4060;49.186;9.226;2023-11-19T08:50:16;1.13;;;0.90;;
7253;SDS011;4060;49.186;9.226;2023-11-19T08:52:46;0.80;;;0.80;;
7253;SDS011;4060;49.186;9.226;2023-11-19T08:55:16;0.90;;;0.90;;
7253;SDS011;4060;49.186;9.226;2023-11-19T08:57:45;0.88;;;0.70;;
7253;SDS011;4060;49.186;9.226;2023-11-19T09:00:15;1.10;;;1.00;;
7253;SDS011;4060;49.186;9.226;2023-11-19T09:02:45;1.27;;;0.80;;
7253;SDS011;4060;49.186;9.226;2023-11-19T09:05:16;0.80;;;0.70;;
7253;SDS011;4060;49.186;9.226;2023-11-19T09:07:45;0.90;;;0.88;;
7253;SDS011;4060;49.186;9.226;2023-11-19T09:10:16;0.60;;;0.60;;
7253;SDS011;4060;49.186;9.226;2023-11-19T09:12:46;0.82;;;0.82;;
7253;SDS011;4060;49.186;9.226;2023-11-19T09:15:16;0.95;;;0.70;;
7253;SDS011;4060;49.186;9.226;2023-11-19T09:17:45;0.75;;;0.75;;
7253;SDS011;4060;49.186;9.226;2023-11-19T09:20:17;0.70;;;0.70;;
7253;SDS011;4060;49.186;9.226;2023-11-19T09:22:46;1.52;;;0.80;;
7253;SDS011;4060;49.186;9.226;2023-11-19T09:25:16;0.82;;;0.80;;
7253;SDS011;4060;49.186;9.226;2023-11-19T09:27:46;1.05;;;0.80;;
7253;SDS011;4060;49.186;9.226;2023-11-19T09:30:16;0.90;;;0.90;;
7253;SDS011;4060;49.186;9.226;2023-11-19T09:32:46;1.08;;;0.90;;
7253;SDS011;4060;49.186;9.226;2023-11-19T09:35:17;1.17;;;0.80;;
7253;SDS011;4060;49.186;9.226;2023-11-19T09:37:46;1.15;;;0.70;;
7253;SDS011;4060;49.186;9.226;2023-11-19T09:40:16;2.08;;;0.80;;
7253;SDS011;4060;49.186;9.226;2023-11-19T09:42:47;1.38;;;0.70;;
7253;SDS011;4060;49.186;9.226;2023-11-19T09:45:16;1.10;;;1.00;;
7253;SDS011;4060;49.186;9.226;2023-11-19T09:47:49;1.20;;;1.08;;
7253;SDS011;4060;49.186;9.226;2023-11-19T09:50:22;1.85;;;1.30;;
7253;SDS011;4060;49.186;9.226;2023-11-19T09:52:52;1.83;;;1.13;;
7253;SDS011;4060;49.186;9.226;2023-11-19T09:55:21;1.25;;;1.00;;
7253;SDS011;4060;49.186;9.226;2023-11-19T09:57:50;2.55;;;1.10;;
7253;SDS011;4060;49.186;9.226;2023-11-19T10:00:22;1.20;;;0.82;;
7253;SDS011;4060;49.186;9.226;2023-11-19T10:02:51;2.22;;;1.02;;
7253;SDS011;4060;49.186;9.226;2023-11-19T10:05:25;1.25;;;1.00;;
7253;SDS011;4060;49.186;9.226;2023-11-19T10:07:54;0.82;;;0.80;;
7253;SDS011;4060;49.186;9.226;2023-11-19T10:10:24;1.02;;;0.90;;
7253;SDS011;4060;49.186;9.226;2023-11-19T10:12:54;0.80;;;0.80;;
7253;SDS011;4060;49.186;9.226;2023-11-19T10:15:24;1.33;;;0.80;;
7253;SDS011;4060;49.186;9.226;2023-11-19T10:17:56;1.23;;;1.00;;
7253;SDS011;4060;49.186;9.226;2023-11-19T10:20:28;1.45;;;1.10;;
7253;SDS011;4060;49.186;9.226;2023-11-19T10:22:57;1.15;;;1.02;;
7253;SDS011;4060;49.186;9.226;2023-11-19T10:25:27;1.60;;;0.82;;
7253;SDS011;4060;49.186;9.226;2023-11-19T10:27:58;1.20;;;1.10;;
7253;SDS011;4060;49.186;9.226;2023-11-19T10:30:28;0.70;;;0.70;;
7253;SDS011;4060;49.186;9.226;2023-11-19T10:33:04;2.53;;;1.02;;
7253;SDS011;4060;49.186;9.226;2023-11-19T10:35:36;1.17;;;0.90;;
7253;SDS011;4060;49.186;9.226;2023-11-19T10:38:20;1.20;;;1.00;;
7253;SDS011;4060;49.186;9.226;2023-11-19T10:40:50;0.80;;;0.80;;
7253;SDS011;4060;49.186;9.226;2023-11-19T10:43:21;0.85;;;0.85;;
7253;SDS011;4060;49.186;9.226;2023-11-19T10:45:52;0.80;;;0.80;;
7253;SDS011;4060;49.186;9.226;2023-11-19T10:48:21;1.27;;;0.90;;
7253;SDS011;4060;49.186;9.226;2023-11-19T10:50:54;3.05;;;1.10;;
7253;SDS011;4060;49.186;9.226;2023-11-19T10:53:24;2.45;;;0.88;;
7253;SDS011;4060;49.186;9.226;2023-11-19T10:55:54;0.90;;;0.70;;
7253;SDS011;4060;49.186;9.226;2023-11-19T10:58:29;1.02;;;0.88;;
7253;SDS011;4060;49.186;9.226;2023-11-19T11:01:04;1.58;;;0.93;;
7253;SDS011;4060;49.186;9.226;2023-11-19T11:03:46;2.20;;;0.88;;
7253;SDS011;4060;49.186;9.226;2023-11-19T11:06:19;2.80;;;0.90;;
7253;SDS011;4060;49.186;9.226;2023-11-19T11:08:50;1.02;;;0.85;;
7253;SDS011;4060;49.186;9.226;2023-11-19T11:11:21;0.95;;;0.85;;
7253;SDS011;4060;49.186;9.226;2023-11-19T11:13:50;1.52;;;0.90;;
7253;SDS011;4060;49.186;9.226;2023-11-19T11:16:23;1.17;;;0.80;;
7253;SDS011;4060;49.186;9.226;2023-11-19T11:18:53;1.75;;;0.73;;
7253;SDS011;4060;49.186;9.226;2023-11-19T11:21:25;1.77;;;0.70;;
7253;SDS011;4060;49.186;9.226;2023-11-19T11:27:09;2.38;;;1.00;;
7253;SDS011;4060;49.186;9.226;2023-11-19T11:30:06;0.88;;;0.80;;
7253;SDS011;4060;49.186;9.226;2023-11-19T11:32:50;1.65;;;0.80;;
7253;SDS011;4060;49.186;9.226;2023-11-19T11:35:30;2.03;;;0.75;;
7253;SDS011;4060;49.186;9.226;2023-11-19T11:38:10;1.63;;;1.10;;
7253;SDS011;4060;49.186;9.226;2023-11-19T11:40:42;2.05;;;1.00;;
7253;SDS011;4060;49.186;9.226;2023-11-19T11:49:31;0.90;;;0.80;;
7253;SDS011;4060;49.186;9.226;2023-11-19T11:52:01;1.48;;;0.85;;
7253;SDS011;4060;49.186;9.226;2023-11-19T11:54:33;1.98;;;1.00;;
7253;SDS011;4060;49.186;9.226;2023-11-19T11:57:12;1.00;;;0.85;;
7253;SDS011;4060;49.186;9.226;2023-11-19T11:59:45;1.88;;;0.90;;
7253;SDS011;4060;49.186;9.226;2023-11-19T12:02:17;1.65;;;0.90;;
7253;SDS011;4060;49.186;9.226;2023-11-19T12:04:48;1.13;;;1.05;;
7253;SDS011;4060;49.186;9.226;2023-11-19T12:07:18;1.70;;;0.90;;
7253;SDS011;4060;49.186;9.226;2023-11-19T12:09:51;1.27;;;1.00;;
7253;SDS011;4060;49.186;9.226;2023-11-19T12:12:22;1.67;;;1.25;;
7253;SDS011;4060;49.186;9.226;2023-11-19T12:15:02;0.95;;;0.93;;
7253;SDS011;4060;49.186;9.226;2023-11-19T12:17:40;2.65;;;1.10;;
7253;SDS011;4060;49.186;9.226;2023-11-19T12:20:18;0.90;;;0.90;;
7253;SDS011;4060;49.186;9.226;2023-11-19T12:22:49;1.00;;;0.90;;
7253;SDS011;4060;49.186;9.226;2023-11-19T12:25:23;1.67;;;0.90;;
7253;SDS011;4060;49.186;9.226;2023-11-19T12:27:53;3.03;;;1.20;;
7253;SDS011;4060;49.186;9.226;2023-11-19T12:30:23;1.58;;;0.88;;
7253;SDS011;4060;49.186;9.226;2023-11-19T12:32:53;1.15;;;0.80;;
7253;SDS011;4060;49.186;9.226;2023-11-19T12:35:23;1.50;;;0.80;;
7253;SDS011;4060;49.186;9.226;2023-11-19T12:37:52;2.35;;;1.13;;
7253;SDS011;4060;49.186;9.226;2023-11-19T12:40:24;2.28;;;1.10;;
7253;SDS011;4060;49.186;9.226;2023-11-19T12:42:55;3.72;;;1.20;;
7253;SDS011;4060;49.186;9.226;2023-11-19T12:45:33;1.80;;;1.08;;
7253;SDS011;4060;49.186;9.226;2023-11-19T12:48:05;3.03;;;1.08;;
7253;SDS011;4060;49.186;9.226;2023-11-19T12:50:52;2.08;;;0.90;;
7253;SDS011;4060;49.186;9.226;2023-11-19T12:53:21;1.60;;;0.88;;
7253;SDS011;4060;49.186;9.226;2023-11-19T12:55:54;2.05;;;0.90;;
7253;SDS011;4060;49.186;9.226;2023-11-19T12:58:30;1.98;;;0.90;;
7253;SDS011;4060;49.186;9.226;2023-11-19T13:01:01;0.90;;;0.90;;
7253;SDS011;4060;49.186;9.226;2023-11-19T13:03:31;1.58;;;0.80;;
7253;SDS011;4060;49.186;9.226;2023-11-19T13:06:02;1.75;;;1.00;;
7253;SDS011;4060;49.186;9.226;2023-11-19T13:08:37;1.98;;;0.95;;
7253;SDS011;4060;49.186;9.226;2023-11-19T13:11:09;2.60;;;1.33;;
7253;SDS011;4060;49.186;9.226;2023-11-19T13:13:55;0.93;;;0.75;;
7253;SDS011;4060;49.186;9.226;2023-11-19T13:16:25;2.00;;;0.75;;
7253;SDS011;4060;49.186;9.226;2023-11-19T13:18:55;2.55;;;1.10;;
7253;SDS011;4060;49.186;9.226;2023-11-19T13:21:26;1.48;;;0.85;;
7253;SDS011;4060;49.186;9.226;2023-11-19T13:23:56;1.95;;;0.90;;
7253;SDS011;4060;49.186;9.226;2023-11-19T13:26:28;2.63;;;1.17;;
7253;SDS011;4060;49.186;9.226;2023-11-19T13:28:58;1.15;;;0.88;;
7253;SDS011;4060;49.186;9.226;2023-11-19T13:31:27;3.40;;;0.90;;
7253;SDS011;4060;49.186;9.226;2023-11-19T13:33:57;2.20;;;0.90;;
7253;SDS011;4060;49.186;9.226;2023-11-19T13:36:27;1.83;;;0.80;;
7253;SDS011;4060;49.186;9.226;2023-11-19T13:38:57;1.42;;;0.80;;
7253;SDS011;4060;49.186;9.226;2023-11-19T13:41:29;1.77;;;0.93;;
7253;SDS011;4060;49.186;9.226;2023-11-19T13:43:58;3.15;;;0.90;;
7253;SDS011;4060;49.186;9.226;2023-11-19T13:46:27;1.92;;;1.10;;
7253;SDS011;4060;49.186;9.226;2023-11-19T13:48:57;1.05;;;0.90;;
7253;SDS011;4060;49.186;9.226;2023-11-19T13:51:26;1.25;;;0.90;;
7253;SDS011;4060;49.186;9.226;2023-11-19T13:53:55;1.60;;;0.98;;
7253;SDS011;4060;49.186;9.226;2023-11-19T13:56:25;3.00;;;0.95;;
7253;SDS011;4060;49.186;9.226;2023-11-19T13:58:56;2.30;;;0.88;;
7253;SDS011;4060;49.186;9.226;2023-11-19T14:01:26;1.83;;;1.00;;
7253;SDS011;4060;49.186;9.226;2023-11-19T14:03:55;2.35;;;1.13;;
7253;SDS011;4060;49.186;9.226;2023-11-19T14:06:24;2.72;;;0.98;;
7253;SDS011;4060;49.186;9.226;2023-11-19T14:08:54;3.90;;;1.55;;
7253;SDS011;4060;49.186;9.226;2023-11-19T14:11:23;1.73;;;0.80;;
7253;SDS011;4060;49.186;9.226;2023-11-19T14:13:54;2.50;;;1.10;;
7253;SDS011;4060;49.186;9.226;2023-11-19T14:16:26;1.33;;;1.00;;
7253;SDS011;4060;49.186;9.226;2023-11-19T14:18:55;2.88;;;1.10;;
7253;SDS011;4060;49.186;9.226;2023-11-19T14:21:24;3.20;;;0.95;;
7253;SDS011;4060;49.186;9.226;2023-11-19T14:23:54;0.95;;;0.80;;
7253;SDS011;4060;49.186;9.226;2023-11-19T14:26:23;1.02;;;0.70;;
7253;SDS011;4060;49.186;9.226;2023-11-19T14:28:55;1.35;;;0.90;;
7253;SDS011;4060;49.186;9.226;2023-11-19T14:31:28;2.78;;;1.10;;
7253;SDS011;4060;49.186;9.226;2023-11-19T14:33:58;2.42;;;0.88;;
7253;SDS011;4060;49.186;9.226;2023-11-19T14:36:28;1.77;;;0.85;;
7253;SDS011;4060;49.186;9.226;2023-11-19T14:38:57;2.35;;;1.05;;
7253;SDS011;4060;49.186;9.226;2023-11-19T14:41:26;1.50;;;0.98;;
7253;SDS011;4060;49.186;9.226;2023-11-19T14:43:58;1.77;;;1.00;;
7253;SDS011;4060;49.186;9.226;2023-11-19T14:46:27;1.70;;;1.05;;
7253;SDS011;4060;49.186;9.226;2023-11-19T14:48:56;1.38;;;1.00;;
7253;SDS011;4060;49.186;9.226;2023-11-19T14:51:26;1.58;;;0.90;;
7253;SDS011;4060;49.186;9.226;2023-11-19T14:53:56;1.58;;;1.20;;
7253;SDS011;4060;49.186;9.226;2023-11-19T14:56:26;1.35;;;1.17;;
7253;SDS011;4060;49.186;9.226;2023-11-19T14:58:57;3.28;;;1.05;;
7253;SDS011;4060;49.186;9.226;2023-11-19T15:01:26;1.88;;;1.05;;
7253;SDS011;4060;49.186;9.226;2023-11-19T15:03:56;1.30;;;1.00;;
7253;SDS011;4060;49.186;9.226;2023-11-19T15:06:26;2.15;;;1.10;;
7253;SDS011;4060;49.186;9.226;2023-11-19T15:08:56;1.70;;;0.95;;
7253;SDS011;4060;49.186;9.226;2023-11-19T15:11:26;2.63;;;0.93;;
7253;SDS011;4060;49.186;9.226;2023-11-19T15:13:55;1.95;;;1.27;;
7253;SDS011;4060;49.186;9.226;2023-11-19T15:16:26;2.78;;;1.00;;
7253;SDS011;4060;49.186;9.226;2023-11-19T15:19:00;2.50;;;1.08;;
7253;SDS011;4060;49.186;9.226;2023-11-19T15:21:30;2.67;;;0.95;;
7253;SDS011;4060;49.186;9.226;2023-11-19T15:23:59;2.80;;;1.10;;
7253;SDS011;4060;49.186;9.226;2023-11-19T15:26:30;1.73;;;0.82;;
7253;SDS011;4060;49.186;9.226;2023-11-19T15:29:01;1.80;;;0.88;;
7253;SDS011;4060;49.186;9.226;2023-11-19T15:31:31;2.33;;;1.10;;
7253;SDS011;4060;49.186;9.226;2023-11-19T15:34:01;1.17;;;0.80;;
7253;SDS011;4060;49.186;9.226;2023-11-19T15:36:31;2.17;;;0.90;;
7253;SDS011;4060;49.186;9.226;2023-11-19T15:39:02;1.98;;;0.98;;
7253;SDS011;4060;49.186;9.226;2023-11-19T15:41:32;0.95;;;0.88;;
7253;SDS011;4060;49.186;9.226;2023-11-19T15:44:03;1.45;;;1.10;;
7253;SDS011;4060;49.186;9.226;2023-11-19T15:46:33;3.05;;;1.10;;